createdAt,value
2019-01-25T00:01:05.669Z,55.70
2019-01-25T00:03:34.356Z,55.52
2019-01-25T00:06:02.955Z,55.72
2019-01-25T00:08:31.532Z,55.98
2019-01-25T00:11:00.101Z,56.12
2019-01-25T00:13:28.811Z,55.49
2019-01-25T00:15:57.452Z,55.99
2019-01-25T00:18:26.094Z,56.20
2019-01-25T00:20:55.946Z,55.86
2019-01-25T00:23:24.649Z,56.15
2019-01-25T00:25:53.231Z,56.28
2019-01-25T00:28:21.944Z,56.25
2019-01-25T00:30:50.952Z,55.79
2019-01-25T00:33:19.536Z,55.97
2019-01-25T00:35:48.183Z,56.54
2019-01-25T00:38:16.823Z,55.77
2019-01-25T00:40:45.418Z,55.77
2019-01-25T00:43:14.130Z,55.45
2019-01-25T00:45:42.748Z,55.51
2019-01-25T00:48:11.368Z,55.22
2019-01-25T00:50:40.039Z,55.41
2019-01-25T00:53:08.711Z,55.26
2019-01-25T00:55:37.499Z,55.66
2019-01-25T00:58:06.614Z,55.55
2019-01-25T01:00:35.411Z,55.32
2019-01-25T01:03:04.321Z,55.76
2019-01-25T01:05:32.935Z,55.83
2019-01-25T01:08:01.507Z,55.83
2019-01-25T01:10:30.130Z,55.71
2019-01-25T01:12:58.704Z,55.69
2019-01-25T01:15:27.688Z,56.10
2019-01-25T01:17:56.452Z,56.19
2019-01-25T01:20:25.145Z,56.38
2019-01-25T01:22:53.756Z,56.47
2019-01-25T01:25:22.418Z,56.59
2019-01-25T01:27:50.976Z,56.59
2019-01-25T01:30:21.942Z,56.79
2019-01-25T01:32:50.605Z,57.23
2019-01-25T01:35:19.424Z,57.48
2019-01-25T01:37:48.295Z,57.59
2019-01-25T01:40:22.100Z,57.67
2019-01-25T01:42:49.244Z,57.87
2019-01-25T01:45:17.924Z,58.01
2019-01-25T01:47:46.521Z,58.04
2019-01-25T01:50:15.851Z,58.08
2019-01-25T01:52:45.219Z,57.80
2019-01-25T01:55:14.041Z,57.92
2019-01-25T01:57:42.697Z,58.38
2019-01-25T02:00:20.859Z,58.06
2019-01-25T02:02:49.545Z,58.16
2019-01-25T02:05:18.152Z,57.49
2019-01-25T02:07:46.764Z,57.26
2019-01-25T02:10:18.158Z,57.12
2019-01-25T02:12:46.723Z,57.56
2019-01-25T02:15:16.650Z,57.72
2019-01-25T02:17:45.271Z,57.96
2019-01-25T02:20:16.988Z,57.84
2019-01-25T02:22:45.583Z,57.53
2019-01-25T02:25:14.368Z,57.52
2019-01-25T02:27:42.974Z,57.37
2019-01-25T02:30:14.716Z,57.66
2019-01-25T02:32:43.369Z,57.92
2019-01-25T02:35:11.988Z,57.71
2019-01-25T02:37:40.598Z,58.14
2019-01-25T02:40:10.461Z,57.85
2019-01-25T02:42:39.085Z,58.35
2019-01-25T02:45:09.339Z,58.43
2019-01-25T02:47:37.974Z,58.45
2019-01-25T02:50:09.024Z,58.59
2019-01-25T02:52:37.665Z,58.96
2019-01-25T02:55:06.577Z,59.38
2019-01-25T02:57:35.185Z,59.25
2019-01-25T03:00:05.230Z,59.49
2019-01-25T03:02:33.882Z,59.60
2019-01-25T03:05:02.517Z,59.39
2019-01-25T03:07:31.149Z,59.35
2019-01-25T03:09:59.751Z,59.81
2019-01-25T03:12:28.376Z,59.66
2019-01-25T03:14:56.976Z,59.95
2019-01-25T03:17:25.636Z,60.20
2019-01-25T03:19:54.316Z,59.99
2019-01-25T03:22:22.965Z,59.85
2019-01-25T03:24:51.541Z,60.65
2019-01-25T03:27:20.126Z,60.75
2019-01-25T03:29:48.726Z,60.54
2019-01-25T03:32:17.350Z,60.75
2019-01-25T03:34:45.928Z,60.89
2019-01-25T03:37:14.523Z,61.12
2019-01-25T03:39:43.165Z,61.26
2019-01-25T03:42:11.868Z,61.71
2019-01-25T03:44:40.490Z,61.49
2019-01-25T03:47:09.124Z,61.73
2019-01-25T03:49:37.773Z,61.74
2019-01-25T03:52:06.394Z,62.16
2019-01-25T03:54:35.015Z,62.50
2019-01-25T03:57:03.656Z,62.84
2019-01-25T03:59:32.235Z,62.91
2019-01-25T04:02:00.872Z,63.40
2019-01-25T04:04:29.457Z,63.72
2019-01-25T04:06:58.087Z,63.48
2019-01-25T04:09:26.650Z,63.55
2019-01-25T04:11:55.252Z,63.72
2019-01-25T04:14:23.844Z,64.16
2019-01-25T04:16:52.451Z,64.29
2019-01-25T04:19:21.055Z,64.30
2019-01-25T04:21:49.670Z,64.24
2019-01-25T04:24:18.306Z,64.46
2019-01-25T04:26:46.917Z,64.82
2019-01-25T04:29:15.527Z,64.91
2019-01-25T04:31:44.104Z,64.83
2019-01-25T04:34:12.748Z,65.10
2019-01-25T04:36:41.412Z,65.08
2019-01-25T04:39:10.041Z,65.04
2019-01-25T04:41:38.688Z,64.48
2019-01-25T04:44:07.555Z,64.81
2019-01-25T04:46:36.153Z,65.18
2019-01-25T04:49:04.779Z,65.19
2019-01-25T04:51:33.385Z,65.32
2019-01-25T04:54:01.991Z,64.74
2019-01-25T04:56:32.089Z,65.25
2019-01-25T04:59:00.690Z,64.88
2019-01-25T05:01:29.246Z,64.66
2019-01-25T05:03:57.872Z,64.99
2019-01-25T05:06:26.464Z,65.57
2019-01-25T05:08:55.159Z,65.65
2019-01-25T05:11:23.950Z,65.60
2019-01-25T05:13:52.652Z,65.15
2019-01-25T05:16:22.192Z,65.30
2019-01-25T05:18:50.829Z,65.85
2019-01-25T05:21:24.254Z,65.79
2019-01-25T05:23:52.983Z,65.51
2019-01-25T05:26:21.680Z,65.71
2019-01-25T05:28:50.314Z,65.41
2019-01-25T05:31:21.604Z,65.63
2019-01-25T05:33:55.155Z,65.73
2019-01-25T05:36:23.784Z,65.75
2019-01-25T05:38:52.393Z,65.76
2019-01-25T05:41:28.163Z,65.51
2019-01-25T05:43:51.412Z,65.75
2019-01-25T05:46:20.011Z,66.02
2019-01-25T05:48:48.669Z,66.12
2019-01-25T05:51:17.227Z,65.95
2019-01-25T05:53:50.552Z,66.14
2019-01-25T05:56:19.222Z,66.08
2019-01-25T05:58:47.835Z,66.18
2019-01-25T06:01:16.484Z,66.48
2019-01-25T06:03:45.089Z,65.67
2019-01-25T06:06:13.689Z,67.21
2019-01-25T06:08:44.077Z,66.33
2019-01-25T06:11:13.411Z,66.18
2019-01-25T06:13:45.963Z,66.36
2019-01-25T06:16:14.968Z,65.61
2019-01-25T06:18:43.658Z,65.68
2019-01-25T06:21:12.294Z,65.90
2019-01-25T06:23:41.461Z,66.55
2019-01-25T06:26:11.249Z,66.08
2019-01-25T06:28:39.890Z,65.84
2019-01-25T06:31:08.539Z,66.30
2019-01-25T06:33:37.207Z,65.78
2019-01-25T06:36:07.326Z,65.92
2019-01-25T06:38:36.393Z,66.96
2019-01-25T06:41:05.700Z,65.88
2019-01-25T06:43:34.281Z,67.34
2019-01-25T06:46:02.845Z,66.60
2019-01-25T06:48:31.440Z,65.88
2019-01-25T06:51:00.159Z,65.68
2019-01-25T06:53:28.794Z,65.90
2019-01-25T06:55:57.380Z,67.08
2019-01-25T06:58:44.477Z,67.31
2019-01-25T07:01:38.132Z,67.74
2019-01-25T07:04:06.728Z,68.18
2019-01-25T07:06:35.506Z,68.35
2019-01-25T07:09:07.035Z,68.55
2019-01-25T07:11:42.035Z,68.54
2019-01-25T07:14:06.078Z,68.68
2019-01-25T07:16:34.735Z,67.67
2019-01-25T07:19:03.712Z,68.64
2019-01-25T07:21:32.302Z,68.83
2019-01-25T07:24:00.915Z,69.04
2019-01-25T07:26:29.503Z,69.40
2019-01-25T07:28:58.164Z,68.93
2019-01-25T07:31:26.907Z,68.79
2019-01-25T07:33:55.523Z,68.37
2019-01-25T07:36:24.211Z,68.95
2019-01-25T07:38:53.509Z,68.26
2019-01-25T07:41:22.130Z,68.40
2019-01-25T07:43:50.709Z,68.45
2019-01-25T07:46:19.313Z,68.96
2019-01-25T07:48:47.975Z,68.29
2019-01-25T07:51:16.612Z,68.52
2019-01-25T07:53:45.254Z,68.60
2019-01-25T07:56:13.879Z,68.45
2019-01-25T07:58:42.479Z,68.34
2019-01-25T08:01:11.692Z,68.54
2019-01-25T08:03:40.757Z,67.99
2019-01-25T08:06:09.463Z,67.74
2019-01-25T08:08:38.180Z,68.45
2019-01-25T08:11:06.914Z,68.78
2019-01-25T08:13:35.565Z,68.92
2019-01-25T08:16:04.150Z,68.92
2019-01-25T08:18:32.767Z,68.57
2019-01-25T08:21:01.388Z,68.49
2019-01-25T08:23:30.004Z,69.04
2019-01-25T08:25:58.552Z,69.09
2019-01-25T08:28:27.136Z,68.87
2019-01-25T08:30:55.768Z,68.36
2019-01-25T08:33:24.509Z,68.29
2019-01-25T08:35:53.202Z,69.17
2019-01-25T08:38:21.829Z,68.95
2019-01-25T08:40:50.600Z,69.03
2019-01-25T08:43:19.161Z,69.46
2019-01-25T08:45:49.489Z,69.85
2019-01-25T08:48:18.329Z,69.83
2019-01-25T08:50:46.995Z,69.64
2019-01-25T08:53:16.201Z,69.70
2019-01-25T08:55:44.922Z,70.02
2019-01-25T08:58:13.909Z,70.27
2019-01-25T09:00:42.737Z,69.82
2019-01-25T09:03:11.386Z,69.46
2019-01-25T09:05:40.075Z,69.45
2019-01-25T09:08:08.708Z,68.76
2019-01-25T09:10:37.341Z,69.50
2019-01-25T09:13:05.916Z,69.96
2019-01-25T09:15:34.915Z,70.06
2019-01-25T09:18:03.556Z,70.19
2019-01-25T09:20:32.387Z,69.69
2019-01-25T09:23:01.030Z,69.70
2019-01-25T09:25:29.618Z,68.59
2019-01-25T09:27:58.242Z,69.72
2019-01-25T09:30:26.909Z,69.33
2019-01-25T09:32:55.553Z,69.09
2019-01-25T09:35:24.587Z,69.46
2019-01-25T09:37:53.278Z,69.45
2019-01-25T09:40:23.575Z,70.17
2019-01-25T09:42:52.588Z,69.13
2019-01-25T09:45:21.550Z,69.73
2019-01-25T09:47:50.159Z,69.99
2019-01-25T09:50:19.062Z,70.39
2019-01-25T09:52:48.022Z,70.35
2019-01-25T09:55:18.811Z,70.59
2019-01-25T09:57:48.151Z,70.26
2019-01-25T10:00:25.923Z,69.81
2019-01-25T10:02:54.880Z,70.48
2019-01-25T10:05:23.766Z,69.28
2019-01-25T10:07:52.432Z,70.45
2019-01-25T10:10:21.424Z,69.86
2019-01-25T10:12:50.052Z,69.65
2019-01-25T10:15:20.807Z,70.35
2019-01-25T10:17:49.432Z,69.97
2019-01-25T10:20:19.005Z,69.60
2019-01-25T10:22:47.735Z,69.52
2019-01-25T10:25:16.373Z,69.14
2019-01-25T10:27:45.099Z,68.90
2019-01-25T10:30:16.709Z,69.46
2019-01-25T10:32:45.319Z,69.20
2019-01-25T10:35:13.962Z,68.91
2019-01-25T10:37:42.615Z,68.15
2019-01-25T10:40:14.665Z,68.07
2019-01-25T10:42:45.566Z,69.00
2019-01-25T10:45:17.411Z,68.52
2019-01-25T10:47:46.067Z,67.08
2019-01-25T10:50:14.692Z,68.84
2019-01-25T10:52:43.313Z,67.23
2019-01-25T10:55:12.080Z,66.62
2019-01-25T10:57:40.716Z,67.38
2019-01-25T11:00:11.965Z,66.71
2019-01-25T11:02:40.587Z,67.32
2019-01-25T11:05:11.633Z,68.50
2019-01-25T11:07:40.314Z,69.32
2019-01-25T11:10:10.507Z,69.74
2019-01-25T11:12:39.113Z,68.34
2019-01-25T11:15:10.047Z,69.97
2019-01-25T11:17:38.680Z,68.25
2019-01-25T11:20:11.005Z,69.39
2019-01-25T11:22:39.609Z,68.68
2019-01-25T11:25:11.549Z,68.76
2019-01-25T11:27:40.130Z,69.25
2019-01-25T11:30:10.028Z,69.12
2019-01-25T11:32:38.631Z,68.24
2019-01-25T11:35:07.373Z,68.00
2019-01-25T11:37:36.051Z,66.99
2019-01-25T11:40:07.679Z,68.08
2019-01-25T11:42:36.246Z,67.31
2019-01-25T11:45:05.444Z,68.88
2019-01-25T11:47:34.097Z,68.21
2019-01-25T11:50:02.763Z,67.94
2019-01-25T11:52:31.403Z,67.37
2019-01-25T11:55:00.003Z,68.63
2019-01-25T11:57:28.682Z,67.02
2019-01-25T11:59:57.332Z,67.49
2019-01-25T12:02:25.941Z,65.74
2019-01-25T12:04:54.653Z,66.29
2019-01-25T12:07:23.277Z,66.67
2019-01-25T12:09:51.908Z,64.27
2019-01-25T12:12:20.806Z,65.92
2019-01-25T12:14:49.462Z,66.07
2019-01-25T12:17:18.127Z,65.90
2019-01-25T12:19:46.729Z,65.14
2019-01-25T12:22:15.328Z,66.33
2019-01-25T12:24:44.283Z,67.34
2019-01-25T12:27:12.863Z,66.61
2019-01-25T12:29:41.549Z,67.12
2019-01-25T12:32:10.418Z,64.61
2019-01-25T12:34:39.244Z,65.25
2019-01-25T12:37:07.835Z,65.62
2019-01-25T12:39:36.477Z,64.13
2019-01-25T12:42:05.387Z,62.87
2019-01-25T12:44:34.034Z,61.46
2019-01-25T12:47:02.617Z,60.45
2019-01-25T12:49:31.243Z,60.85
2019-01-25T12:52:08.168Z,61.33
2019-01-25T12:54:33.993Z,62.04
2019-01-25T12:57:02.648Z,63.61
2019-01-25T12:59:31.235Z,61.62
2019-01-25T13:02:00.439Z,61.66
2019-01-25T13:04:29.046Z,61.55
2019-01-25T13:06:57.712Z,61.59
2019-01-25T13:09:26.390Z,61.45
2019-01-25T13:11:55.125Z,60.27
2019-01-25T13:14:23.732Z,60.69
2019-01-25T13:16:52.449Z,60.27
2019-01-25T13:19:21.459Z,60.65
2019-01-25T13:21:50.043Z,60.98
2019-01-25T13:24:18.659Z,61.95
2019-01-25T13:26:47.282Z,62.39
2019-01-25T13:29:15.914Z,64.26
2019-01-25T13:31:44.818Z,64.69
2019-01-25T13:34:13.509Z,64.33
2019-01-25T13:36:42.087Z,65.18
2019-01-25T13:39:10.949Z,64.64
2019-01-25T13:41:39.540Z,64.87
2019-01-25T13:44:08.143Z,65.52
2019-01-25T13:46:36.728Z,65.57
2019-01-25T13:49:05.388Z,66.06
2019-01-25T13:51:33.999Z,66.60
2019-01-25T13:54:02.627Z,66.66
2019-01-25T13:56:31.239Z,66.56
2019-01-25T13:58:59.884Z,66.43
2019-01-25T14:01:34.604Z,65.72
2019-01-25T14:03:58.948Z,65.75
2019-01-25T14:06:27.551Z,65.63
2019-01-25T14:08:56.245Z,65.39
2019-01-25T14:11:25.071Z,65.39
2019-01-25T14:13:53.809Z,65.93
2019-01-25T14:16:22.407Z,65.77
2019-01-25T14:18:52.219Z,66.39
2019-01-25T14:21:21.132Z,66.21
2019-01-25T14:23:49.763Z,66.85
2019-01-25T14:26:18.410Z,66.62
2019-01-25T14:28:47.056Z,65.86
2019-01-25T14:31:15.703Z,66.44
2019-01-25T14:33:44.354Z,66.87
2019-01-25T14:36:12.971Z,67.12
2019-01-25T14:38:41.600Z,65.09
2019-01-25T14:41:10.196Z,65.20
2019-01-25T14:43:39.185Z,64.21
2019-01-25T14:46:07.805Z,64.98
2019-01-25T14:48:38.191Z,65.20
2019-01-25T14:51:06.986Z,65.72
2019-01-25T14:53:36.306Z,65.98
2019-01-25T14:56:04.903Z,62.59
2019-01-25T14:58:34.170Z,62.82
2019-01-25T15:01:02.787Z,62.20
2019-01-25T15:03:31.430Z,62.11
2019-01-25T15:05:59.999Z,61.62
2019-01-25T15:08:28.587Z,62.33
2019-01-25T15:10:57.217Z,62.07
2019-01-25T15:13:25.875Z,62.59
2019-01-25T15:15:54.572Z,62.79
2019-01-25T15:18:23.255Z,63.07
2019-01-25T15:20:51.888Z,63.37
2019-01-25T15:23:20.506Z,63.21
2019-01-25T15:25:49.131Z,63.41
2019-01-25T15:28:17.828Z,63.46
2019-01-25T15:30:46.549Z,62.33
2019-01-25T15:33:15.186Z,62.80
2019-01-25T15:35:43.806Z,62.22
2019-01-25T15:38:12.463Z,61.71
2019-01-25T15:40:41.051Z,61.18
2019-01-25T15:43:09.656Z,60.89
2019-01-25T15:45:38.306Z,60.33
2019-01-25T15:48:07.447Z,60.56
2019-01-25T15:50:36.030Z,59.77
2019-01-25T15:53:04.888Z,60.00
2019-01-25T15:55:33.848Z,60.23
2019-01-25T15:58:02.504Z,60.48
2019-01-25T16:00:31.253Z,60.21
2019-01-25T16:02:59.866Z,60.28
2019-01-25T16:05:28.537Z,60.32
2019-01-25T16:07:57.205Z,60.67
2019-01-25T16:10:25.822Z,60.73
2019-01-25T16:12:54.652Z,61.35
2019-01-25T16:15:25.387Z,61.69
2019-01-25T16:17:53.986Z,62.56
2019-01-25T16:20:22.646Z,63.12
2019-01-25T16:22:51.396Z,63.14
2019-01-25T16:25:22.594Z,63.77
2019-01-25T16:27:51.462Z,63.41
2019-01-25T16:30:22.445Z,63.58
2019-01-25T16:32:51.316Z,64.00
2019-01-25T16:35:19.997Z,64.15
2019-01-25T16:37:48.678Z,64.33
2019-01-25T16:40:18.327Z,64.66
2019-01-25T16:42:46.980Z,64.34
2019-01-25T16:45:21.432Z,64.53
2019-01-25T16:47:50.076Z,64.40
2019-01-25T16:50:23.589Z,64.65
2019-01-25T16:52:49.513Z,64.49
2019-01-25T16:55:18.132Z,64.76
2019-01-25T16:57:46.763Z,64.79
2019-01-25T17:00:29.635Z,64.85
2019-01-25T17:02:58.346Z,65.03
2019-01-25T17:05:27.021Z,65.33
2019-01-25T17:07:55.640Z,65.34
2019-01-25T17:10:24.354Z,65.56
2019-01-25T17:12:53.038Z,65.49
2019-01-25T17:15:21.789Z,65.35
2019-01-25T17:17:50.364Z,65.45
2019-01-25T17:20:21.486Z,65.44
2019-01-25T17:22:51.975Z,65.32
2019-01-25T17:25:20.645Z,65.72
2019-01-25T17:27:49.255Z,65.61
2019-01-25T17:30:25.833Z,65.64
2019-01-25T17:32:55.502Z,65.44
2019-01-25T17:35:24.339Z,65.62
2019-01-25T17:37:53.045Z,66.00
2019-01-25T17:40:23.812Z,66.21
2019-01-25T17:42:52.463Z,65.77
2019-01-25T17:45:21.123Z,65.77
2019-01-25T17:47:49.764Z,66.18
2019-01-25T17:50:18.454Z,66.33
2019-01-25T17:52:47.105Z,66.22
2019-01-25T17:55:15.926Z,66.10
2019-01-25T17:57:44.546Z,66.39
2019-01-25T18:00:21.661Z,66.56
2019-01-25T18:02:50.604Z,66.43
2019-01-25T18:05:19.228Z,66.72
2019-01-25T18:07:47.908Z,66.71
2019-01-25T18:10:16.897Z,66.87
2019-01-25T18:12:45.778Z,66.92
2019-01-25T18:15:14.672Z,66.97
2019-01-25T18:17:43.379Z,66.85
2019-01-25T18:20:14.143Z,66.81
2019-01-25T18:22:42.900Z,66.50
2019-01-25T18:25:13.611Z,66.44
2019-01-25T18:27:45.729Z,66.44
2019-01-25T18:30:22.272Z,66.54
2019-01-25T18:32:51.339Z,66.60
2019-01-25T18:35:19.956Z,66.62
2019-01-25T18:37:48.627Z,66.78
2019-01-25T18:40:17.253Z,66.73
2019-01-25T18:42:47.698Z,66.45
2019-01-25T18:45:16.741Z,66.49
2019-01-25T18:47:45.902Z,66.43
2019-01-25T18:50:15.254Z,66.29
2019-01-25T18:52:44.014Z,66.52
2019-01-25T18:55:15.316Z,65.92
2019-01-25T18:57:44.006Z,65.93
2019-01-25T19:00:15.742Z,65.83
2019-01-25T19:02:44.477Z,66.10
2019-01-25T19:05:13.154Z,66.05
2019-01-25T19:07:42.108Z,66.01
2019-01-25T19:10:14.138Z,66.53
2019-01-25T19:12:42.953Z,66.44
2019-01-25T19:15:13.300Z,66.64
2019-01-25T19:17:41.970Z,67.02
2019-01-25T19:20:12.027Z,67.56
2019-01-25T19:22:41.113Z,68.33
2019-01-25T19:25:10.030Z,68.74
2019-01-25T19:27:38.719Z,69.25
2019-01-25T19:30:12.667Z,70.47
2019-01-25T19:32:41.339Z,70.77
2019-01-25T19:35:10.149Z,70.42
2019-01-25T19:37:38.773Z,71.01
2019-01-25T19:40:10.007Z,71.37
2019-01-25T19:42:41.466Z,72.44
2019-01-25T19:45:12.047Z,72.90
2019-01-25T19:47:40.791Z,73.53
2019-01-25T19:50:11.437Z,73.42
2019-01-25T19:52:40.051Z,73.63
2019-01-25T19:55:11.766Z,74.23
2019-01-25T19:57:40.554Z,74.90
2019-01-25T20:00:14.804Z,75.27
2019-01-25T20:02:43.492Z,75.43
2019-01-25T20:05:12.940Z,75.83
2019-01-25T20:07:41.689Z,75.92
2019-01-25T20:10:11.048Z,76.61
2019-01-25T20:12:39.744Z,76.92
2019-01-25T20:15:10.307Z,76.87
2019-01-25T20:17:41.265Z,77.27
2019-01-25T20:20:13.655Z,77.09
2019-01-25T20:22:42.576Z,77.18
2019-01-25T20:25:11.508Z,77.05
2019-01-25T20:27:40.221Z,77.05
2019-01-25T20:30:12.324Z,77.22
2019-01-25T20:32:41.128Z,77.39
2019-01-25T20:35:13.682Z,77.50
2019-01-25T20:37:42.576Z,77.56
2019-01-25T20:40:13.202Z,77.35
2019-01-25T20:42:41.875Z,77.51
2019-01-25T20:45:13.760Z,77.51
2019-01-25T20:47:42.505Z,77.38
2019-01-25T20:50:13.874Z,77.58
2019-01-25T20:52:42.600Z,77.26
2019-01-25T20:55:17.095Z,77.40
2019-01-25T20:57:45.961Z,77.31
2019-01-25T21:00:17.556Z,76.85
2019-01-25T21:02:46.241Z,77.54
2019-01-25T21:05:15.076Z,77.60
2019-01-25T21:07:43.867Z,77.35
2019-01-25T21:10:14.643Z,77.66
2019-01-25T21:12:43.451Z,77.68
2019-01-25T21:15:13.746Z,77.73
2019-01-25T21:17:42.558Z,78.18
2019-01-25T21:20:14.354Z,77.96
2019-01-25T21:22:42.975Z,77.69
2019-01-25T21:25:11.904Z,78.15
2019-01-25T21:27:40.859Z,78.58
2019-01-25T21:30:13.427Z,77.85
2019-01-25T21:32:42.221Z,77.95
2019-01-25T21:35:10.827Z,77.51
2019-01-25T21:37:39.629Z,77.73
2019-01-25T21:40:11.224Z,77.64
2019-01-25T21:42:39.867Z,77.31
2019-01-25T21:45:10.862Z,77.34
2019-01-25T21:47:39.488Z,76.48
2019-01-25T21:50:28.697Z,76.57
2019-01-25T21:52:57.331Z,76.45
2019-01-25T21:55:25.959Z,76.05
2019-01-25T21:57:54.686Z,76.07
2019-01-25T22:00:25.796Z,76.64
2019-01-25T22:02:54.452Z,75.99
2019-01-25T22:05:23.077Z,76.62
2019-01-25T22:07:51.696Z,76.70
2019-01-25T22:10:25.964Z,76.53
2019-01-25T22:12:54.613Z,76.79
2019-01-25T22:15:23.206Z,76.22
2019-01-25T22:17:51.841Z,76.57
2019-01-25T22:20:25.040Z,76.62
2019-01-25T22:22:53.686Z,76.68
2019-01-25T22:25:22.410Z,76.94
2019-01-25T22:27:52.446Z,76.79
2019-01-25T22:30:22.849Z,76.78
2019-01-25T22:32:51.563Z,77.17
2019-01-25T22:35:20.222Z,77.29
2019-01-25T22:37:48.848Z,77.52
2019-01-25T22:40:19.696Z,77.52
2019-01-25T22:42:48.352Z,77.87
2019-01-25T22:45:19.067Z,77.76
2019-01-25T22:47:50.399Z,77.71
2019-01-25T22:50:21.248Z,77.49
2019-01-25T22:52:49.844Z,77.38
2019-01-25T22:55:18.748Z,77.68
2019-01-25T22:57:47.376Z,77.49
2019-01-25T23:00:52.688Z,77.20
2019-01-25T23:03:28.096Z,76.89
2019-01-25T23:06:26.668Z,76.85
2019-01-25T23:08:55.564Z,76.64
2019-01-25T23:11:26.501Z,76.96
2019-01-25T23:13:55.191Z,77.03
2019-01-25T23:16:23.969Z,77.20
2019-01-25T23:18:52.544Z,77.27
2019-01-25T23:21:21.146Z,77.66
2019-01-25T23:23:49.756Z,77.79
2019-01-25T23:26:18.336Z,77.60
2019-01-25T23:28:46.977Z,77.79
2019-01-25T23:31:15.607Z,77.96
2019-01-25T23:33:44.244Z,77.88
2019-01-25T23:36:12.851Z,78.01
2019-01-25T23:38:41.468Z,78.16
2019-01-25T23:41:10.079Z,78.35
2019-01-25T23:43:38.717Z,78.25
2019-01-25T23:46:13.681Z,78.26
2019-01-25T23:48:37.655Z,78.39
2019-01-25T23:51:06.297Z,78.17
2019-01-25T23:53:34.910Z,77.79
2019-01-25T23:56:03.851Z,77.95
2019-01-25T23:58:32.487Z,77.92
